sensor_id;sensor_type;location;lat;lon;timestamp;P1;durP1;ratioP1;P2;durP2;ratioP2
42840;SDS011;28491;46.898;7.660;2023-02-11T00:01:39;25.35;;;14.57;;
42840;SDS011;28491;46.898;7.660;2023-02-11T00:04:05;22.30;;;13.65;;
42840;SDS011;28491;46.898;7.660;2023-02-11T00:06:31;21.67;;;13.60;;
42840;SDS011;28491;46.898;7.660;2023-02-11T00:08:58;25.75;;;14.80;;
42840;SDS011;28491;46.898;7.660;2023-02-11T00:11:24;20.35;;;12.10;;
42840;SDS011;28491;46.898;7.660;2023-02-11T00:13:54;23.00;;;14.07;;
42840;SDS011;28491;46.898;7.660;2023-02-11T00:16:23;26.40;;;13.35;;
42840;SDS011;28491;46.898;7.660;2023-02-11T00:18:49;26.27;;;14.27;;
42840;SDS011;28491;46.898;7.660;2023-02-11T00:21:17;27.52;;;14.15;;
42840;SDS011;28491;46.898;7.660;2023-02-11T00:23:47;19.23;;;13.23;;
42840;SDS011;28491;46.898;7.660;2023-02-11T00:26:21;24.23;;;13.70;;
42840;SDS011;28491;46.898;7.660;2023-02-11T00:28:48;24.98;;;13.35;;
42840;SDS011;28491;46.898;7.660;2023-02-11T00:31:15;23.10;;;15.00;;
42840;SDS011;28491;46.898;7.660;2023-02-11T00:33:42;23.63;;;14.95;;
42840;SDS011;28491;46.898;7.660;2023-02-11T00:36:12;28.73;;;16.38;;
42840;SDS011;28491;46.898;7.660;2023-02-11T00:38:42;28.85;;;15.73;;
42840;SDS011;28491;46.898;7.660;2023-02-11T00:41:08;23.85;;;14.10;;
42840;SDS011;28491;46.898;7.660;2023-02-11T00:43:35;24.88;;;15.35;;
42840;SDS011;28491;46.898;7.660;2023-02-11T00:46:00;22.45;;;13.32;;
42840;SDS011;28491;46.898;7.660;2023-02-11T00:48:26;20.55;;;12.10;;
42840;SDS011;28491;46.898;7.660;2023-02-11T00:50:51;23.83;;;13.55;;
42840;SDS011;28491;46.898;7.660;2023-02-11T00:53:17;33.85;;;16.45;;
42840;SDS011;28491;46.898;7.660;2023-02-11T00:55:42;26.63;;;16.17;;
42840;SDS011;28491;46.898;7.660;2023-02-11T00:58:08;26.13;;;12.65;;
42840;SDS011;28491;46.898;7.660;2023-02-11T01:00:33;24.85;;;13.68;;
42840;SDS011;28491;46.898;7.660;2023-02-11T01:02:59;27.88;;;12.90;;
42840;SDS011;28491;46.898;7.660;2023-02-11T01:05:24;26.55;;;13.95;;
42840;SDS011;28491;46.898;7.660;2023-02-11T01:07:50;25.98;;;15.10;;
42840;SDS011;28491;46.898;7.660;2023-02-11T01:10:16;23.98;;;14.02;;
42840;SDS011;28491;46.898;7.660;2023-02-11T01:12:42;23.77;;;14.38;;
42840;SDS011;28491;46.898;7.660;2023-02-11T01:15:07;23.95;;;14.60;;
42840;SDS011;28491;46.898;7.660;2023-02-11T01:17:35;27.58;;;14.55;;
42840;SDS011;28491;46.898;7.660;2023-02-11T01:20:02;22.80;;;12.70;;
42840;SDS011;28491;46.898;7.660;2023-02-11T01:22:32;26.52;;;15.10;;
42840;SDS011;28491;46.898;7.660;2023-02-11T01:24:58;21.55;;;11.60;;
42840;SDS011;28491;46.898;7.660;2023-02-11T01:27:24;19.98;;;11.20;;
42840;SDS011;28491;46.898;7.660;2023-02-11T01:29:50;20.83;;;12.20;;
42840;SDS011;28491;46.898;7.660;2023-02-11T01:32:15;24.70;;;13.43;;
42840;SDS011;28491;46.898;7.660;2023-02-11T01:34:41;21.85;;;13.18;;
42840;SDS011;28491;46.898;7.660;2023-02-11T01:37:06;23.42;;;13.43;;
42840;SDS011;28491;46.898;7.660;2023-02-11T01:39:32;22.38;;;12.77;;
42840;SDS011;28491;46.898;7.660;2023-02-11T01:41:59;22.42;;;14.55;;
42840;SDS011;28491;46.898;7.660;2023-02-11T01:44:35;18.33;;;11.32;;
42840;SDS011;28491;46.898;7.660;2023-02-11T01:47:02;18.52;;;11.90;;
42840;SDS011;28491;46.898;7.660;2023-02-11T01:49:31;22.45;;;11.70;;
42840;SDS011;28491;46.898;7.660;2023-02-11T01:52:01;20.90;;;12.63;;
42840;SDS011;28491;46.898;7.660;2023-02-11T01:54:42;19.05;;;11.73;;
42840;SDS011;28491;46.898;7.660;2023-02-11T01:57:30;22.10;;;13.50;;
42840;SDS011;28491;46.898;7.660;2023-02-11T02:00:12;20.25;;;12.05;;
42840;SDS011;28491;46.898;7.660;2023-02-11T02:05:19;19.10;;;12.02;;
42840;SDS011;28491;46.898;7.660;2023-02-11T02:10:44;24.05;;;12.98;;
42840;SDS011;28491;46.898;7.660;2023-02-11T02:13:12;23.92;;;12.38;;
42840;SDS011;28491;46.898;7.660;2023-02-11T02:15:39;19.38;;;10.45;;
42840;SDS011;28491;46.898;7.660;2023-02-11T02:20:59;19.10;;;11.77;;
42840;SDS011;28491;46.898;7.660;2023-02-11T02:32:22;17.75;;;11.75;;
42840;SDS011;28491;46.898;7.660;2023-02-11T02:37:42;20.33;;;10.63;;
42840;SDS011;28491;46.898;7.660;2023-02-11T02:40:15;16.65;;;10.70;;
42840;SDS011;28491;46.898;7.660;2023-02-11T02:42:45;16.23;;;10.20;;
42840;SDS011;28491;46.898;7.660;2023-02-11T02:45:12;20.27;;;12.18;;
42840;SDS011;28491;46.898;7.660;2023-02-11T02:47:39;16.55;;;10.05;;
42840;SDS011;28491;46.898;7.660;2023-02-11T02:50:04;20.40;;;12.35;;
42840;SDS011;28491;46.898;7.660;2023-02-11T02:52:39;17.42;;;11.82;;
42840;SDS011;28491;46.898;7.660;2023-02-11T02:56:07;23.25;;;12.82;;
42840;SDS011;28491;46.898;7.660;2023-02-11T03:01:34;22.17;;;13.48;;
42840;SDS011;28491;46.898;7.660;2023-02-11T03:04:22;18.42;;;11.27;;
42840;SDS011;28491;46.898;7.660;2023-02-11T03:09:53;16.40;;;10.38;;
42840;SDS011;28491;46.898;7.660;2023-02-11T03:12:29;15.85;;;10.95;;
42840;SDS011;28491;46.898;7.660;2023-02-11T03:14:58;16.45;;;11.45;;
42840;SDS011;28491;46.898;7.660;2023-02-11T03:17:26;16.95;;;9.85;;
42840;SDS011;28491;46.898;7.660;2023-02-11T03:19:54;19.35;;;11.20;;
42840;SDS011;28491;46.898;7.660;2023-02-11T03:22:24;18.73;;;11.30;;
42840;SDS011;28491;46.898;7.660;2023-02-11T03:24:57;21.02;;;11.23;;
42840;SDS011;28491;46.898;7.660;2023-02-11T03:27:26;19.00;;;11.63;;
42840;SDS011;28491;46.898;7.660;2023-02-11T03:30:00;18.10;;;11.18;;
42840;SDS011;28491;46.898;7.660;2023-02-11T03:32:35;17.02;;;10.75;;
42840;SDS011;28491;46.898;7.660;2023-02-11T03:37:34;18.20;;;10.55;;
42840;SDS011;28491;46.898;7.660;2023-02-11T03:40:07;21.10;;;10.73;;
42840;SDS011;28491;46.898;7.660;2023-02-11T03:42:47;16.35;;;9.70;;
42840;SDS011;28491;46.898;7.660;2023-02-11T03:45:25;18.38;;;11.52;;
42840;SDS011;28491;46.898;7.660;2023-02-11T03:48:02;18.70;;;10.57;;
42840;SDS011;28491;46.898;7.660;2023-02-11T03:50:35;17.63;;;10.40;;
42840;SDS011;28491;46.898;7.660;2023-02-11T03:53:02;20.35;;;12.27;;
42840;SDS011;28491;46.898;7.660;2023-02-11T03:55:28;14.63;;;10.15;;
42840;SDS011;28491;46.898;7.660;2023-02-11T03:57:57;16.63;;;10.27;;
42840;SDS011;28491;46.898;7.660;2023-02-11T04:00:32;16.60;;;9.77;;
42840;SDS011;28491;46.898;7.660;2023-02-11T04:03:00;18.25;;;11.93;;
42840;SDS011;28491;46.898;7.660;2023-02-11T04:05:26;15.93;;;9.65;;
42840;SDS011;28491;46.898;7.660;2023-02-11T04:07:52;21.55;;;11.07;;
42840;SDS011;28491;46.898;7.660;2023-02-11T04:10:17;19.77;;;11.30;;
42840;SDS011;28491;46.898;7.660;2023-02-11T04:12:43;17.90;;;10.20;;
42840;SDS011;28491;46.898;7.660;2023-02-11T04:15:09;20.52;;;11.20;;
42840;SDS011;28491;46.898;7.660;2023-02-11T04:17:34;17.90;;;11.45;;
42840;SDS011;28491;46.898;7.660;2023-02-11T04:20:00;19.75;;;11.98;;
42840;SDS011;28491;46.898;7.660;2023-02-11T04:22:26;18.95;;;10.65;;
42840;SDS011;28491;46.898;7.660;2023-02-11T04:24:51;17.08;;;10.80;;
42840;SDS011;28491;46.898;7.660;2023-02-11T04:27:17;19.80;;;12.07;;
42840;SDS011;28491;46.898;7.660;2023-02-11T04:29:42;20.45;;;10.38;;
42840;SDS011;28491;46.898;7.660;2023-02-11T04:32:09;15.77;;;9.60;;
42840;SDS011;28491;46.898;7.660;2023-02-11T04:34:35;14.48;;;9.88;;
42840;SDS011;28491;46.898;7.660;2023-02-11T04:37:00;13.30;;;9.00;;
42840;SDS011;28491;46.898;7.660;2023-02-11T04:39:26;26.23;;;11.25;;
42840;SDS011;28491;46.898;7.660;2023-02-11T04:41:52;18.40;;;9.40;;
42840;SDS011;28491;46.898;7.660;2023-02-11T04:44:17;16.40;;;7.90;;
42840;SDS011;28491;46.898;7.660;2023-02-11T04:46:43;17.42;;;9.38;;
42840;SDS011;28491;46.898;7.660;2023-02-11T04:49:11;14.10;;;8.63;;
42840;SDS011;28491;46.898;7.660;2023-02-11T04:51:37;17.90;;;8.63;;
42840;SDS011;28491;46.898;7.660;2023-02-11T04:54:03;16.33;;;10.13;;
42840;SDS011;28491;46.898;7.660;2023-02-11T04:56:28;15.30;;;10.30;;
42840;SDS011;28491;46.898;7.660;2023-02-11T04:58:54;16.10;;;8.75;;
42840;SDS011;28491;46.898;7.660;2023-02-11T05:01:19;15.82;;;10.07;;
42840;SDS011;28491;46.898;7.660;2023-02-11T05:03:45;21.05;;;11.70;;
42840;SDS011;28491;46.898;7.660;2023-02-11T05:06:11;17.65;;;8.65;;
42840;SDS011;28491;46.898;7.660;2023-02-11T05:08:37;20.38;;;9.55;;
42840;SDS011;28491;46.898;7.660;2023-02-11T05:11:02;15.65;;;9.43;;
42840;SDS011;28491;46.898;7.660;2023-02-11T05:13:28;16.35;;;9.85;;
42840;SDS011;28491;46.898;7.660;2023-02-11T05:15:54;19.30;;;9.88;;
42840;SDS011;28491;46.898;7.660;2023-02-11T05:18:20;21.73;;;10.70;;
42840;SDS011;28491;46.898;7.660;2023-02-11T05:20:46;18.95;;;11.35;;
42840;SDS011;28491;46.898;7.660;2023-02-11T05:23:12;17.33;;;11.02;;
42840;SDS011;28491;46.898;7.660;2023-02-11T05:25:37;17.70;;;9.85;;
42840;SDS011;28491;46.898;7.660;2023-02-11T05:28:03;15.32;;;10.32;;
42840;SDS011;28491;46.898;7.660;2023-02-11T05:30:30;17.52;;;9.90;;
42840;SDS011;28491;46.898;7.660;2023-02-11T05:32:55;15.30;;;9.07;;
42840;SDS011;28491;46.898;7.660;2023-02-11T05:35:21;13.32;;;8.48;;
42840;SDS011;28491;46.898;7.660;2023-02-11T05:37:47;13.05;;;8.65;;
42840;SDS011;28491;46.898;7.660;2023-02-11T05:40:13;12.85;;;7.53;;
42840;SDS011;28491;46.898;7.660;2023-02-11T05:42:39;15.65;;;8.60;;
42840;SDS011;28491;46.898;7.660;2023-02-11T05:45:04;14.02;;;8.93;;
42840;SDS011;28491;46.898;7.660;2023-02-11T05:47:30;12.68;;;7.85;;
42840;SDS011;28491;46.898;7.660;2023-02-11T05:49:56;14.45;;;7.68;;
42840;SDS011;28491;46.898;7.660;2023-02-11T05:52:22;13.27;;;8.23;;
42840;SDS011;28491;46.898;7.660;2023-02-11T05:54:47;13.65;;;8.80;;
42840;SDS011;28491;46.898;7.660;2023-02-11T05:57:13;14.93;;;8.90;;
42840;SDS011;28491;46.898;7.660;2023-02-11T05:59:39;13.77;;;7.85;;
42840;SDS011;28491;46.898;7.660;2023-02-11T06:02:05;13.93;;;8.35;;
42840;SDS011;28491;46.898;7.660;2023-02-11T06:04:32;13.05;;;8.02;;
42840;SDS011;28491;46.898;7.660;2023-02-11T06:06:58;15.73;;;8.50;;
42840;SDS011;28491;46.898;7.660;2023-02-11T06:09:23;13.05;;;8.88;;
42840;SDS011;28491;46.898;7.660;2023-02-11T06:11:49;17.25;;;9.27;;
42840;SDS011;28491;46.898;7.660;2023-02-11T06:14:14;15.27;;;8.55;;
42840;SDS011;28491;46.898;7.660;2023-02-11T06:16:40;19.52;;;9.57;;
42840;SDS011;28491;46.898;7.660;2023-02-11T06:19:05;18.25;;;8.13;;
42840;SDS011;28491;46.898;7.660;2023-02-11T06:21:31;13.68;;;8.02;;
42840;SDS011;28491;46.898;7.660;2023-02-11T06:23:56;15.32;;;8.95;;
42840;SDS011;28491;46.898;7.660;2023-02-11T06:26:22;14.35;;;8.13;;
42840;SDS011;28491;46.898;7.660;2023-02-11T06:28:48;11.00;;;6.35;;
42840;SDS011;28491;46.898;7.660;2023-02-11T06:31:13;15.48;;;7.03;;
42840;SDS011;28491;46.898;7.660;2023-02-11T06:33:39;13.02;;;7.10;;
42840;SDS011;28491;46.898;7.660;2023-02-11T06:36:16;11.90;;;7.68;;
42840;SDS011;28491;46.898;7.660;2023-02-11T06:38:43;12.75;;;7.38;;
42840;SDS011;28491;46.898;7.660;2023-02-11T06:41:10;13.35;;;7.95;;
42840;SDS011;28491;46.898;7.660;2023-02-11T06:43:37;12.82;;;7.10;;
42840;SDS011;28491;46.898;7.660;2023-02-11T06:46:03;15.43;;;7.70;;
42840;SDS011;28491;46.898;7.660;2023-02-11T06:48:28;15.20;;;7.93;;
42840;SDS011;28491;46.898;7.660;2023-02-11T06:50:54;13.57;;;8.27;;
42840;SDS011;28491;46.898;7.660;2023-02-11T06:53:19;15.23;;;7.28;;
42840;SDS011;28491;46.898;7.660;2023-02-11T06:55:45;13.55;;;8.27;;
42840;SDS011;28491;46.898;7.660;2023-02-11T06:58:10;13.57;;;7.75;;
42840;SDS011;28491;46.898;7.660;2023-02-11T07:00:36;14.00;;;8.50;;
42840;SDS011;28491;46.898;7.660;2023-02-11T07:03:02;26.05;;;9.82;;
42840;SDS011;28491;46.898;7.660;2023-02-11T07:05:28;16.30;;;7.18;;
42840;SDS011;28491;46.898;7.660;2023-02-11T07:07:53;13.25;;;6.93;;
42840;SDS011;28491;46.898;7.660;2023-02-11T07:10:19;12.77;;;7.68;;
42840;SDS011;28491;46.898;7.660;2023-02-11T07:12:44;15.20;;;7.68;;
42840;SDS011;28491;46.898;7.660;2023-02-11T07:15:10;12.52;;;7.22;;
42840;SDS011;28491;46.898;7.660;2023-02-11T07:17:35;13.70;;;7.53;;
42840;SDS011;28491;46.898;7.660;2023-02-11T07:20:01;14.85;;;8.15;;
42840;SDS011;28491;46.898;7.660;2023-02-11T07:22:27;11.20;;;7.43;;
42840;SDS011;28491;46.898;7.660;2023-02-11T07:24:52;11.50;;;6.88;;
42840;SDS011;28491;46.898;7.660;2023-02-11T07:27:18;15.07;;;8.88;;
42840;SDS011;28491;46.898;7.660;2023-02-11T07:29:43;18.80;;;8.18;;
42840;SDS011;28491;46.898;7.660;2023-02-11T07:32:10;15.13;;;9.57;;
42840;SDS011;28491;46.898;7.660;2023-02-11T07:34:37;20.65;;;8.50;;
42840;SDS011;28491;46.898;7.660;2023-02-11T07:37:02;12.18;;;7.53;;
42840;SDS011;28491;46.898;7.660;2023-02-11T07:39:28;11.77;;;7.00;;
42840;SDS011;28491;46.898;7.660;2023-02-11T07:41:54;10.45;;;6.82;;
42840;SDS011;28491;46.898;7.660;2023-02-11T07:44:19;14.43;;;7.30;;
42840;SDS011;28491;46.898;7.660;2023-02-11T07:46:45;10.55;;;7.18;;
42840;SDS011;28491;46.898;7.660;2023-02-11T07:49:12;13.77;;;7.50;;
42840;SDS011;28491;46.898;7.660;2023-02-11T07:51:39;8.90;;;6.15;;
42840;SDS011;28491;46.898;7.660;2023-02-11T07:54:04;10.32;;;6.68;;
42840;SDS011;28491;46.898;7.660;2023-02-11T07:56:30;12.38;;;8.27;;
42840;SDS011;28491;46.898;7.660;2023-02-11T07:59:00;12.20;;;6.75;;
42840;SDS011;28491;46.898;7.660;2023-02-11T08:01:27;10.77;;;7.28;;
42840;SDS011;28491;46.898;7.660;2023-02-11T08:03:54;13.30;;;8.13;;
42840;SDS011;28491;46.898;7.660;2023-02-11T08:06:22;16.42;;;10.52;;
42840;SDS011;28491;46.898;7.660;2023-02-11T08:08:48;18.40;;;11.07;;
42840;SDS011;28491;46.898;7.660;2023-02-11T08:11:16;13.75;;;8.60;;
42840;SDS011;28491;46.898;7.660;2023-02-11T08:13:44;13.20;;;8.05;;
42840;SDS011;28491;46.898;7.660;2023-02-11T08:16:29;12.45;;;8.23;;
42840;SDS011;28491;46.898;7.660;2023-02-11T08:18:59;12.00;;;7.75;;
42840;SDS011;28491;46.898;7.660;2023-02-11T08:21:27;12.80;;;8.30;;
42840;SDS011;28491;46.898;7.660;2023-02-11T08:23:52;10.32;;;6.82;;
42840;SDS011;28491;46.898;7.660;2023-02-11T08:26:19;9.60;;;6.60;;
42840;SDS011;28491;46.898;7.660;2023-02-11T08:28:53;9.95;;;6.72;;
42840;SDS011;28491;46.898;7.660;2023-02-11T08:31:24;10.70;;;7.00;;
42840;SDS011;28491;46.898;7.660;2023-02-11T08:33:54;13.85;;;7.35;;
42840;SDS011;28491;46.898;7.660;2023-02-11T08:36:23;10.63;;;6.32;;
42840;SDS011;28491;46.898;7.660;2023-02-11T08:38:50;9.83;;;6.63;;
42840;SDS011;28491;46.898;7.660;2023-02-11T08:41:18;12.25;;;6.85;;
42840;SDS011;28491;46.898;7.660;2023-02-11T08:43:44;11.20;;;8.75;;
42840;SDS011;28491;46.898;7.660;2023-02-11T08:46:11;10.55;;;6.60;;
42840;SDS011;28491;46.898;7.660;2023-02-11T08:48:39;12.18;;;7.20;;
42840;SDS011;28491;46.898;7.660;2023-02-11T08:51:09;12.52;;;6.75;;
42840;SDS011;28491;46.898;7.660;2023-02-11T08:53:39;10.30;;;6.68;;
42840;SDS011;28491;46.898;7.660;2023-02-11T08:56:05;9.77;;;6.47;;
42840;SDS011;28491;46.898;7.660;2023-02-11T08:58:30;11.32;;;6.55;;
42840;SDS011;28491;46.898;7.660;2023-02-11T09:00:57;12.70;;;6.95;;
42840;SDS011;28491;46.898;7.660;2023-02-11T09:03:23;8.77;;;6.13;;
42840;SDS011;28491;46.898;7.660;2023-02-11T09:05:48;12.43;;;7.65;;
42840;SDS011;28491;46.898;7.660;2023-02-11T09:08:17;8.68;;;5.93;;
42840;SDS011;28491;46.898;7.660;2023-02-11T09:10:43;10.13;;;6.38;;
42840;SDS011;28491;46.898;7.660;2023-02-11T09:13:09;9.70;;;5.82;;
42840;SDS011;28491;46.898;7.660;2023-02-11T09:15:35;10.30;;;6.85;;
42840;SDS011;28491;46.898;7.660;2023-02-11T09:18:01;10.82;;;7.60;;
42840;SDS011;28491;46.898;7.660;2023-02-11T09:20:27;10.35;;;6.13;;
42840;SDS011;28491;46.898;7.660;2023-02-11T09:22:53;24.58;;;17.15;;
42840;SDS011;28491;46.898;7.660;2023-02-11T09:27:48;15.15;;;6.80;;
42840;SDS011;28491;46.898;7.660;2023-02-11T09:30:15;12.77;;;7.15;;
42840;SDS011;28491;46.898;7.660;2023-02-11T09:32:40;9.82;;;6.78;;
42840;SDS011;28491;46.898;7.660;2023-02-11T09:35:06;11.88;;;7.22;;
42840;SDS011;28491;46.898;7.660;2023-02-11T09:37:32;10.15;;;6.70;;
42840;SDS011;28491;46.898;7.660;2023-02-11T09:39:57;10.50;;;6.85;;
42840;SDS011;28491;46.898;7.660;2023-02-11T09:42:41;10.05;;;6.85;;
42840;SDS011;28491;46.898;7.660;2023-02-11T09:45:16;11.35;;;7.90;;
42840;SDS011;28491;46.898;7.660;2023-02-11T09:47:56;13.77;;;7.60;;
42840;SDS011;28491;46.898;7.660;2023-02-11T09:50:27;9.63;;;6.25;;
42840;SDS011;28491;46.898;7.660;2023-02-11T09:53:02;10.60;;;7.13;;
42840;SDS011;28491;46.898;7.660;2023-02-11T09:55:30;12.25;;;6.97;;
42840;SDS011;28491;46.898;7.660;2023-02-11T09:58:09;13.18;;;7.60;;
42840;SDS011;28491;46.898;7.660;2023-02-11T10:06:42;13.43;;;8.70;;
42840;SDS011;28491;46.898;7.660;2023-02-11T10:11:59;17.73;;;8.70;;
42840;SDS011;28491;46.898;7.660;2023-02-11T10:14:57;11.35;;;8.10;;
42840;SDS011;28491;46.898;7.660;2023-02-11T10:22:56;15.20;;;10.35;;
42840;SDS011;28491;46.898;7.660;2023-02-11T10:25:26;10.80;;;7.93;;
42840;SDS011;28491;46.898;7.660;2023-02-11T10:28:20;10.23;;;7.47;;
42840;SDS011;28491;46.898;7.660;2023-02-11T10:30:51;11.95;;;7.85;;
42840;SDS011;28491;46.898;7.660;2023-02-11T10:36:12;9.77;;;7.63;;
42840;SDS011;28491;46.898;7.660;2023-02-11T10:38:40;11.07;;;8.63;;
42840;SDS011;28491;46.898;7.660;2023-02-11T10:41:08;11.60;;;8.27;;
42840;SDS011;28491;46.898;7.660;2023-02-11T10:43:37;11.60;;;8.55;;
42840;SDS011;28491;46.898;7.660;2023-02-11T10:46:06;13.80;;;9.25;;
42840;SDS011;28491;46.898;7.660;2023-02-11T10:51:27;12.75;;;7.35;;
42840;SDS011;28491;46.898;7.660;2023-02-11T10:56:35;9.82;;;7.57;;
42840;SDS011;28491;46.898;7.660;2023-02-11T10:59:04;12.23;;;8.55;;
42840;SDS011;28491;46.898;7.660;2023-02-11T11:01:39;13.63;;;7.80;;
42840;SDS011;28491;46.898;7.660;2023-02-11T11:04:06;15.30;;;9.50;;
42840;SDS011;28491;46.898;7.660;2023-02-11T11:07:10;15.60;;;9.93;;
42840;SDS011;28491;46.898;7.660;2023-02-11T11:09:57;15.00;;;8.55;;
42840;SDS011;28491;46.898;7.660;2023-02-11T11:12:29;11.00;;;7.22;;
42840;SDS011;28491;46.898;7.660;2023-02-11T11:14:58;11.43;;;7.20;;
42840;SDS011;28491;46.898;7.660;2023-02-11T11:17:42;12.18;;;7.43;;
42840;SDS011;28491;46.898;7.660;2023-02-11T11:20:25;12.48;;;7.30;;
42840;SDS011;28491;46.898;7.660;2023-02-11T11:22:53;10.23;;;6.68;;
42840;SDS011;28491;46.898;7.660;2023-02-11T11:25:40;10.40;;;6.45;;
42840;SDS011;28491;46.898;7.660;2023-02-11T11:28:17;8.23;;;6.28;;
42840;SDS011;28491;46.898;7.660;2023-02-11T11:30:45;12.25;;;8.13;;
42840;SDS011;28491;46.898;7.660;2023-02-11T11:36:08;9.98;;;6.30;;
42840;SDS011;28491;46.898;7.660;2023-02-11T11:38:43;9.02;;;6.55;;
42840;SDS011;28491;46.898;7.660;2023-02-11T11:41:27;11.88;;;6.63;;
42840;SDS011;28491;46.898;7.660;2023-02-11T11:43:55;9.38;;;6.88;;
42840;SDS011;28491;46.898;7.660;2023-02-11T11:46:30;12.63;;;5.82;;
42840;SDS011;28491;46.898;7.660;2023-02-11T11:49:00;10.57;;;6.57;;
42840;SDS011;28491;46.898;7.660;2023-02-11T11:54:42;12.52;;;6.72;;
42840;SDS011;28491;46.898;7.660;2023-02-11T11:57:15;11.75;;;5.40;;
42840;SDS011;28491;46.898;7.660;2023-02-11T11:59:45;10.77;;;6.07;;
42840;SDS011;28491;46.898;7.660;2023-02-11T12:05:00;6.63;;;5.03;;
42840;SDS011;28491;46.898;7.660;2023-02-11T12:26:31;7.85;;;4.88;;
42840;SDS011;28491;46.898;7.660;2023-02-11T12:43:14;7.60;;;5.40;;
42840;SDS011;28491;46.898;7.660;2023-02-11T12:48:38;8.07;;;5.18;;
42840;SDS011;28491;46.898;7.660;2023-02-11T12:54:38;9.05;;;6.35;;
42840;SDS011;28491;46.898;7.660;2023-02-11T13:02:27;9.05;;;5.57;;
42840;SDS011;28491;46.898;7.660;2023-02-11T13:05:00;11.13;;;6.10;;
42840;SDS011;28491;46.898;7.660;2023-02-11T13:07:35;9.15;;;6.10;;
42840;SDS011;28491;46.898;7.660;2023-02-11T13:12:39;8.55;;;5.63;;
42840;SDS011;28491;46.898;7.660;2023-02-11T13:15:29;8.75;;;5.85;;
42840;SDS011;28491;46.898;7.660;2023-02-11T13:17:59;10.75;;;7.32;;
42840;SDS011;28491;46.898;7.660;2023-02-11T13:20:52;11.23;;;6.95;;
42840;SDS011;28491;46.898;7.660;2023-02-11T13:23:44;10.57;;;6.50;;
42840;SDS011;28491;46.898;7.660;2023-02-11T13:31:15;9.65;;;6.65;;
42840;SDS011;28491;46.898;7.660;2023-02-11T13:33:43;9.05;;;5.15;;
42840;SDS011;28491;46.898;7.660;2023-02-11T13:36:16;10.77;;;6.57;;
42840;SDS011;28491;46.898;7.660;2023-02-11T13:38:55;9.73;;;5.88;;
42840;SDS011;28491;46.898;7.660;2023-02-11T13:41:31;10.73;;;7.22;;
42840;SDS011;28491;46.898;7.660;2023-02-11T13:44:16;11.02;;;5.88;;
42840;SDS011;28491;46.898;7.660;2023-02-11T13:46:47;8.68;;;5.65;;
42840;SDS011;28491;46.898;7.660;2023-02-11T13:49:18;9.68;;;6.50;;
42840;SDS011;28491;46.898;7.660;2023-02-11T13:51:46;12.60;;;6.15;;
42840;SDS011;28491;46.898;7.660;2023-02-11T13:59:45;9.52;;;6.65;;
42840;SDS011;28491;46.898;7.660;2023-02-11T14:02:45;10.23;;;6.37;;
42840;SDS011;28491;46.898;7.660;2023-02-11T14:05:24;8.38;;;5.68;;
42840;SDS011;28491;46.898;7.660;2023-02-11T14:08:13;8.93;;;5.50;;
42840;SDS011;28491;46.898;7.660;2023-02-11T14:11:04;8.85;;;5.95;;
42840;SDS011;28491;46.898;7.660;2023-02-11T14:23:52;8.65;;;5.70;;
42840;SDS011;28491;46.898;7.660;2023-02-11T14:29:48;9.10;;;5.72;;
42840;SDS011;28491;46.898;7.660;2023-02-11T14:35:21;9.18;;;5.63;;
42840;SDS011;28491;46.898;7.660;2023-02-11T14:40:46;10.98;;;6.70;;
42840;SDS011;28491;46.898;7.660;2023-02-11T14:43:30;9.90;;;6.70;;
42840;SDS011;28491;46.898;7.660;2023-02-11T14:46:18;10.95;;;7.03;;
42840;SDS011;28491;46.898;7.660;2023-02-11T14:48:46;12.93;;;6.25;;
42840;SDS011;28491;46.898;7.660;2023-02-11T14:51:18;8.63;;;6.32;;
42840;SDS011;28491;46.898;7.660;2023-02-11T14:53:48;11.00;;;6.57;;
42840;SDS011;28491;46.898;7.660;2023-02-11T14:58:45;11.60;;;6.90;;
42840;SDS011;28491;46.898;7.660;2023-02-11T15:03:59;15.80;;;7.47;;
42840;SDS011;28491;46.898;7.660;2023-02-11T15:06:38;9.88;;;6.85;;
42840;SDS011;28491;46.898;7.660;2023-02-11T15:09:12;10.27;;;7.35;;
42840;SDS011;28491;46.898;7.660;2023-02-11T15:11:42;11.52;;;7.22;;
42840;SDS011;28491;46.898;7.660;2023-02-11T15:16:45;10.35;;;7.22;;
42840;SDS011;28491;46.898;7.660;2023-02-11T15:19:16;11.63;;;7.22;;
42840;SDS011;28491;46.898;7.660;2023-02-11T15:22:06;11.43;;;7.15;;
42840;SDS011;28491;46.898;7.660;2023-02-11T15:24:42;13.75;;;7.57;;
42840;SDS011;28491;46.898;7.660;2023-02-11T15:29:37;10.27;;;7.13;;
42840;SDS011;28491;46.898;7.660;2023-02-11T15:32:06;10.68;;;8.18;;
42840;SDS011;28491;46.898;7.660;2023-02-11T15:34:41;12.13;;;8.82;;
42840;SDS011;28491;46.898;7.660;2023-02-11T15:39:45;10.18;;;7.00;;
42840;SDS011;28491;46.898;7.660;2023-02-11T15:42:30;10.38;;;7.25;;
42840;SDS011;28491;46.898;7.660;2023-02-11T15:47:46;19.42;;;8.95;;
42840;SDS011;28491;46.898;7.660;2023-02-11T15:50:24;13.45;;;8.25;;
42840;SDS011;28491;46.898;7.660;2023-02-11T15:52:51;12.50;;;8.50;;
42840;SDS011;28491;46.898;7.660;2023-02-11T15:55:18;11.75;;;8.13;;
42840;SDS011;28491;46.898;7.660;2023-02-11T15:57:46;12.77;;;8.18;;
42840;SDS011;28491;46.898;7.660;2023-02-11T16:00:17;12.10;;;8.35;;
42840;SDS011;28491;46.898;7.660;2023-02-11T16:02:45;15.98;;;7.45;;
42840;SDS011;28491;46.898;7.660;2023-02-11T16:08:24;18.73;;;12.25;;
42840;SDS011;28491;46.898;7.660;2023-02-11T16:11:00;12.15;;;8.18;;
42840;SDS011;28491;46.898;7.660;2023-02-11T16:13:32;9.85;;;7.38;;
42840;SDS011;28491;46.898;7.660;2023-02-11T16:16:20;13.25;;;8.20;;
42840;SDS011;28491;46.898;7.660;2023-02-11T16:18:52;15.52;;;8.80;;
42840;SDS011;28491;46.898;7.660;2023-02-11T16:21:29;11.48;;;7.55;;
42840;SDS011;28491;46.898;7.660;2023-02-11T16:24:03;18.75;;;9.13;;
42840;SDS011;28491;46.898;7.660;2023-02-11T16:26:38;14.20;;;9.05;;
42840;SDS011;28491;46.898;7.660;2023-02-11T16:31:36;15.55;;;9.57;;
42840;SDS011;28491;46.898;7.660;2023-02-11T16:34:18;13.05;;;9.00;;
42840;SDS011;28491;46.898;7.660;2023-02-11T16:36:49;15.32;;;9.20;;
42840;SDS011;28491;46.898;7.660;2023-02-11T16:39:16;17.52;;;10.07;;
42840;SDS011;28491;46.898;7.660;2023-02-11T16:41:45;49.67;;;26.23;;
42840;SDS011;28491;46.898;7.660;2023-02-11T16:44:10;31.20;;;15.82;;
42840;SDS011;28491;46.898;7.660;2023-02-11T16:46:36;32.00;;;17.17;;
42840;SDS011;28491;46.898;7.660;2023-02-11T16:49:09;48.50;;;24.42;;
42840;SDS011;28491;46.898;7.660;2023-02-11T16:51:40;36.58;;;20.40;;
42840;SDS011;28491;46.898;7.660;2023-02-11T16:54:11;29.15;;;15.95;;
42840;SDS011;28491;46.898;7.660;2023-02-11T16:56:39;25.05;;;14.00;;
42840;SDS011;28491;46.898;7.660;2023-02-11T16:59:04;28.02;;;16.13;;
42840;SDS011;28491;46.898;7.660;2023-02-11T17:01:30;55.83;;;31.00;;
42840;SDS011;28491;46.898;7.660;2023-02-11T17:03:56;25.98;;;15.52;;
42840;SDS011;28491;46.898;7.660;2023-02-11T17:06:22;40.20;;;24.25;;
42840;SDS011;28491;46.898;7.660;2023-02-11T17:08:47;38.80;;;22.38;;
42840;SDS011;28491;46.898;7.660;2023-02-11T17:11:13;34.72;;;18.98;;
42840;SDS011;28491;46.898;7.660;2023-02-11T17:13:40;29.17;;;17.10;;
42840;SDS011;28491;46.898;7.660;2023-02-11T17:16:15;36.33;;;19.73;;
42840;SDS011;28491;46.898;7.660;2023-02-11T17:18:46;46.13;;;22.40;;
42840;SDS011;28491;46.898;7.660;2023-02-11T17:21:12;25.98;;;16.48;;
42840;SDS011;28491;46.898;7.660;2023-02-11T17:23:39;22.20;;;14.85;;
42840;SDS011;28491;46.898;7.660;2023-02-11T17:26:05;26.85;;;15.50;;
42840;SDS011;28491;46.898;7.660;2023-02-11T17:28:30;24.35;;;14.70;;